sensor_id;sensor_type;location;lat;lon;timestamp;P1;durP1;ratioP1;P2;durP2;ratioP2
12687;SDS011;6408;59.388;17.798;2022-07-19T00:01:09;5.47;;;4.82;;
12687;SDS011;6408;59.388;17.798;2022-07-19T00:03:36;5.57;;;4.68;;
12687;SDS011;6408;59.388;17.798;2022-07-19T00:06:03;6.38;;;4.68;;
12687;SDS011;6408;59.388;17.798;2022-07-19T00:08:30;5.07;;;4.18;;
12687;SDS011;6408;59.388;17.798;2022-07-19T00:10:56;5.75;;;4.97;;
12687;SDS011;6408;59.388;17.798;2022-07-19T00:13:23;4.82;;;4.32;;
12687;SDS011;6408;59.388;17.798;2022-07-19T00:15:51;7.30;;;4.50;;
12687;SDS011;6408;59.388;17.798;2022-07-19T00:18:18;6.20;;;3.95;;
12687;SDS011;6408;59.388;17.798;2022-07-19T00:20:45;5.40;;;4.70;;
12687;SDS011;6408;59.388;17.798;2022-07-19T00:23:11;5.18;;;4.68;;
12687;SDS011;6408;59.388;17.798;2022-07-19T00:25:38;5.78;;;4.45;;
12687;SDS011;6408;59.388;17.798;2022-07-19T00:28:05;7.35;;;4.65;;
12687;SDS011;6408;59.388;17.798;2022-07-19T00:30:32;9.32;;;5.18;;
12687;SDS011;6408;59.388;17.798;2022-07-19T00:33:00;8.15;;;5.00;;
12687;SDS011;6408;59.388;17.798;2022-07-19T00:35:29;6.22;;;4.75;;
12687;SDS011;6408;59.388;17.798;2022-07-19T00:37:56;11.10;;;5.13;;
12687;SDS011;6408;59.388;17.798;2022-07-19T00:40:23;7.50;;;4.85;;
12687;SDS011;6408;59.388;17.798;2022-07-19T00:42:50;6.65;;;4.95;;
12687;SDS011;6408;59.388;17.798;2022-07-19T00:45:17;6.50;;;5.00;;
12687;SDS011;6408;59.388;17.798;2022-07-19T00:47:43;5.90;;;5.18;;
12687;SDS011;6408;59.388;17.798;2022-07-19T00:50:12;7.35;;;4.88;;
12687;SDS011;6408;59.388;17.798;2022-07-19T00:52:39;5.50;;;5.00;;
12687;SDS011;6408;59.388;17.798;2022-07-19T00:55:07;6.15;;;4.53;;
12687;SDS011;6408;59.388;17.798;2022-07-19T00:57:35;9.50;;;5.00;;
12687;SDS011;6408;59.388;17.798;2022-07-19T01:00:04;8.60;;;4.90;;
12687;SDS011;6408;59.388;17.798;2022-07-19T01:02:32;7.72;;;5.35;;
12687;SDS011;6408;59.388;17.798;2022-07-19T01:04:59;7.68;;;4.53;;
12687;SDS011;6408;59.388;17.798;2022-07-19T01:07:27;6.55;;;4.72;;
12687;SDS011;6408;59.388;17.798;2022-07-19T01:09:54;7.28;;;4.70;;
12687;SDS011;6408;59.388;17.798;2022-07-19T01:12:21;8.20;;;5.22;;
12687;SDS011;6408;59.388;17.798;2022-07-19T01:14:48;7.78;;;5.32;;
12687;SDS011;6408;59.388;17.798;2022-07-19T01:17:14;6.30;;;4.88;;
12687;SDS011;6408;59.388;17.798;2022-07-19T01:19:42;6.10;;;4.53;;
12687;SDS011;6408;59.388;17.798;2022-07-19T01:22:10;6.53;;;4.90;;
12687;SDS011;6408;59.388;17.798;2022-07-19T01:24:37;7.05;;;5.18;;
12687;SDS011;6408;59.388;17.798;2022-07-19T01:27:04;7.70;;;5.00;;
12687;SDS011;6408;59.388;17.798;2022-07-19T01:29:31;8.85;;;4.82;;
12687;SDS011;6408;59.388;17.798;2022-07-19T01:32:00;8.10;;;5.80;;
12687;SDS011;6408;59.388;17.798;2022-07-19T01:34:27;7.03;;;5.22;;
12687;SDS011;6408;59.388;17.798;2022-07-19T01:36:54;7.30;;;4.95;;
12687;SDS011;6408;59.388;17.798;2022-07-19T01:39:22;6.78;;;5.10;;
12687;SDS011;6408;59.388;17.798;2022-07-19T01:41:49;6.65;;;4.88;;
12687;SDS011;6408;59.388;17.798;2022-07-19T01:44:16;9.10;;;4.90;;
12687;SDS011;6408;59.388;17.798;2022-07-19T01:46:43;5.68;;;4.90;;
12687;SDS011;6408;59.388;17.798;2022-07-19T01:49:09;7.03;;;5.20;;
12687;SDS011;6408;59.388;17.798;2022-07-19T01:51:36;7.60;;;5.20;;
12687;SDS011;6408;59.388;17.798;2022-07-19T01:54:03;9.70;;;5.38;;
12687;SDS011;6408;59.388;17.798;2022-07-19T01:56:31;5.88;;;4.57;;
12687;SDS011;6408;59.388;17.798;2022-07-19T01:58:57;7.82;;;5.00;;
12687;SDS011;6408;59.388;17.798;2022-07-19T02:01:24;9.82;;;5.10;;
12687;SDS011;6408;59.388;17.798;2022-07-19T02:03:51;5.72;;;4.88;;
12687;SDS011;6408;59.388;17.798;2022-07-19T02:06:18;6.55;;;5.03;;
12687;SDS011;6408;59.388;17.798;2022-07-19T02:08:44;6.32;;;5.15;;
12687;SDS011;6408;59.388;17.798;2022-07-19T02:11:11;9.65;;;5.03;;
12687;SDS011;6408;59.388;17.798;2022-07-19T02:13:57;6.18;;;5.03;;
12687;SDS011;6408;59.388;17.798;2022-07-19T02:16:24;9.50;;;5.57;;
12687;SDS011;6408;59.388;17.798;2022-07-19T02:18:51;7.55;;;4.93;;
12687;SDS011;6408;59.388;17.798;2022-07-19T02:21:17;9.27;;;5.30;;
12687;SDS011;6408;59.388;17.798;2022-07-19T02:23:44;7.93;;;4.90;;
12687;SDS011;6408;59.388;17.798;2022-07-19T02:26:11;7.00;;;5.03;;
12687;SDS011;6408;59.388;17.798;2022-07-19T02:28:38;9.50;;;5.40;;
12687;SDS011;6408;59.388;17.798;2022-07-19T02:31:06;7.38;;;5.35;;
12687;SDS011;6408;59.388;17.798;2022-07-19T02:33:33;6.35;;;5.20;;
12687;SDS011;6408;59.388;17.798;2022-07-19T02:35:59;7.68;;;5.13;;
12687;SDS011;6408;59.388;17.798;2022-07-19T02:38:26;6.72;;;5.50;;
12687;SDS011;6408;59.388;17.798;2022-07-19T02:40:53;5.80;;;5.18;;
12687;SDS011;6408;59.388;17.798;2022-07-19T02:43:19;8.23;;;5.40;;
12687;SDS011;6408;59.388;17.798;2022-07-19T02:45:46;7.32;;;5.38;;
12687;SDS011;6408;59.388;17.798;2022-07-19T02:48:14;6.55;;;5.28;;
12687;SDS011;6408;59.388;17.798;2022-07-19T02:50:41;7.57;;;5.40;;
12687;SDS011;6408;59.388;17.798;2022-07-19T02:53:08;9.93;;;5.40;;
12687;SDS011;6408;59.388;17.798;2022-07-19T02:55:35;8.15;;;5.65;;
12687;SDS011;6408;59.388;17.798;2022-07-19T02:58:02;11.13;;;6.00;;
12687;SDS011;6408;59.388;17.798;2022-07-19T03:00:29;8.52;;;5.50;;
12687;SDS011;6408;59.388;17.798;2022-07-19T03:02:57;7.60;;;5.63;;
12687;SDS011;6408;59.388;17.798;2022-07-19T03:05:46;7.57;;;5.45;;
12687;SDS011;6408;59.388;17.798;2022-07-19T03:08:13;7.40;;;4.97;;
12687;SDS011;6408;59.388;17.798;2022-07-19T03:10:39;8.95;;;5.43;;
12687;SDS011;6408;59.388;17.798;2022-07-19T03:13:06;7.03;;;5.22;;
12687;SDS011;6408;59.388;17.798;2022-07-19T03:15:34;7.93;;;5.13;;
12687;SDS011;6408;59.388;17.798;2022-07-19T03:18:01;9.68;;;5.20;;
12687;SDS011;6408;59.388;17.798;2022-07-19T03:20:27;6.15;;;4.93;;
12687;SDS011;6408;59.388;17.798;2022-07-19T03:22:55;7.70;;;5.22;;
12687;SDS011;6408;59.388;17.798;2022-07-19T03:25:22;11.15;;;5.63;;
12687;SDS011;6408;59.388;17.798;2022-07-19T03:27:49;7.13;;;5.07;;
12687;SDS011;6408;59.388;17.798;2022-07-19T03:30:16;9.48;;;5.57;;
12687;SDS011;6408;59.388;17.798;2022-07-19T03:32:43;6.40;;;4.75;;
12687;SDS011;6408;59.388;17.798;2022-07-19T03:35:09;6.97;;;4.78;;
12687;SDS011;6408;59.388;17.798;2022-07-19T03:37:36;6.65;;;4.80;;
12687;SDS011;6408;59.388;17.798;2022-07-19T03:40:05;5.70;;;4.75;;
12687;SDS011;6408;59.388;17.798;2022-07-19T03:42:32;10.85;;;5.22;;
12687;SDS011;6408;59.388;17.798;2022-07-19T03:44:59;8.90;;;5.50;;
12687;SDS011;6408;59.388;17.798;2022-07-19T03:47:26;8.75;;;5.20;;
12687;SDS011;6408;59.388;17.798;2022-07-19T03:49:53;8.60;;;4.95;;
12687;SDS011;6408;59.388;17.798;2022-07-19T03:52:19;6.60;;;5.18;;
12687;SDS011;6408;59.388;17.798;2022-07-19T03:54:46;7.60;;;5.03;;
12687;SDS011;6408;59.388;17.798;2022-07-19T03:57:14;8.35;;;5.65;;
12687;SDS011;6408;59.388;17.798;2022-07-19T03:59:41;8.93;;;4.75;;
12687;SDS011;6408;59.388;17.798;2022-07-19T04:02:08;6.90;;;5.47;;
12687;SDS011;6408;59.388;17.798;2022-07-19T04:04:35;9.00;;;5.53;;
12687;SDS011;6408;59.388;17.798;2022-07-19T04:07:01;8.75;;;4.70;;
12687;SDS011;6408;59.388;17.798;2022-07-19T04:09:29;6.57;;;4.82;;
12687;SDS011;6408;59.388;17.798;2022-07-19T04:11:55;7.07;;;5.03;;
12687;SDS011;6408;59.388;17.798;2022-07-19T04:14:23;6.28;;;4.50;;
12687;SDS011;6408;59.388;17.798;2022-07-19T04:16:50;9.90;;;5.32;;
12687;SDS011;6408;59.388;17.798;2022-07-19T04:19:17;8.32;;;5.10;;
12687;SDS011;6408;59.388;17.798;2022-07-19T04:21:43;5.53;;;4.72;;
12687;SDS011;6408;59.388;17.798;2022-07-19T04:24:10;7.90;;;4.93;;
12687;SDS011;6408;59.388;17.798;2022-07-19T04:26:37;6.60;;;4.82;;
12687;SDS011;6408;59.388;17.798;2022-07-19T04:29:04;6.32;;;5.10;;
12687;SDS011;6408;59.388;17.798;2022-07-19T04:31:32;10.98;;;5.65;;
12687;SDS011;6408;59.388;17.798;2022-07-19T04:33:59;11.02;;;5.07;;
12687;SDS011;6408;59.388;17.798;2022-07-19T04:36:25;6.82;;;4.78;;
12687;SDS011;6408;59.388;17.798;2022-07-19T04:38:52;5.18;;;4.03;;
12687;SDS011;6408;59.388;17.798;2022-07-19T04:41:19;8.32;;;5.20;;
12687;SDS011;6408;59.388;17.798;2022-07-19T04:43:45;6.13;;;4.53;;
12687;SDS011;6408;59.388;17.798;2022-07-19T04:46:12;7.75;;;4.32;;
12687;SDS011;6408;59.388;17.798;2022-07-19T04:48:40;8.95;;;5.30;;
12687;SDS011;6408;59.388;17.798;2022-07-19T04:51:07;9.68;;;4.68;;
12687;SDS011;6408;59.388;17.798;2022-07-19T04:53:34;7.38;;;4.70;;
12687;SDS011;6408;59.388;17.798;2022-07-19T04:56:00;8.43;;;5.07;;
12687;SDS011;6408;59.388;17.798;2022-07-19T04:58:27;7.25;;;4.80;;
12687;SDS011;6408;59.388;17.798;2022-07-19T05:00:54;6.53;;;4.97;;
12687;SDS011;6408;59.388;17.798;2022-07-19T05:03:20;8.48;;;5.00;;
12687;SDS011;6408;59.388;17.798;2022-07-19T05:05:49;7.63;;;4.75;;
12687;SDS011;6408;59.388;17.798;2022-07-19T05:08:16;6.75;;;5.05;;
12687;SDS011;6408;59.388;17.798;2022-07-19T05:10:43;7.38;;;4.93;;
12687;SDS011;6408;59.388;17.798;2022-07-19T05:13:10;6.53;;;4.82;;
12687;SDS011;6408;59.388;17.798;2022-07-19T05:15:37;8.10;;;5.03;;
12687;SDS011;6408;59.388;17.798;2022-07-19T05:18:04;6.35;;;4.80;;
12687;SDS011;6408;59.388;17.798;2022-07-19T05:20:30;6.00;;;4.72;;
12687;SDS011;6408;59.388;17.798;2022-07-19T05:22:59;6.07;;;4.53;;
12687;SDS011;6408;59.388;17.798;2022-07-19T05:25:26;6.50;;;4.93;;
12687;SDS011;6408;59.388;17.798;2022-07-19T05:27:53;7.18;;;4.60;;
12687;SDS011;6408;59.388;17.798;2022-07-19T05:30:21;8.38;;;5.05;;
12687;SDS011;6408;59.388;17.798;2022-07-19T05:32:47;9.98;;;5.20;;
12687;SDS011;6408;59.388;17.798;2022-07-19T05:35:14;5.57;;;4.90;;
12687;SDS011;6408;59.388;17.798;2022-07-19T05:37:41;6.53;;;4.55;;
12687;SDS011;6408;59.388;17.798;2022-07-19T05:40:10;5.95;;;4.55;;
12687;SDS011;6408;59.388;17.798;2022-07-19T05:42:37;7.20;;;4.70;;
12687;SDS011;6408;59.388;17.798;2022-07-19T05:45:04;7.07;;;5.35;;
12687;SDS011;6408;59.388;17.798;2022-07-19T05:47:31;5.95;;;4.82;;
12687;SDS011;6408;59.388;17.798;2022-07-19T05:49:57;6.00;;;4.95;;
12687;SDS011;6408;59.388;17.798;2022-07-19T05:52:24;5.97;;;4.68;;
12687;SDS011;6408;59.388;17.798;2022-07-19T05:54:51;6.35;;;4.88;;
12687;SDS011;6408;59.388;17.798;2022-07-19T05:57:19;6.57;;;4.97;;
12687;SDS011;6408;59.388;17.798;2022-07-19T05:59:46;6.68;;;5.05;;
12687;SDS011;6408;59.388;17.798;2022-07-19T06:02:13;6.57;;;5.25;;
12687;SDS011;6408;59.388;17.798;2022-07-19T06:04:41;6.05;;;4.63;;
12687;SDS011;6408;59.388;17.798;2022-07-19T06:07:08;7.75;;;5.20;;
12687;SDS011;6408;59.388;17.798;2022-07-19T06:09:35;6.35;;;5.35;;
12687;SDS011;6408;59.388;17.798;2022-07-19T06:12:02;6.75;;;5.00;;
12687;SDS011;6408;59.388;17.798;2022-07-19T06:14:30;6.78;;;4.93;;
12687;SDS011;6408;59.388;17.798;2022-07-19T06:16:57;6.95;;;5.47;;
12687;SDS011;6408;59.388;17.798;2022-07-19T06:19:24;4.93;;;4.38;;
12687;SDS011;6408;59.388;17.798;2022-07-19T06:21:51;7.40;;;5.10;;
12687;SDS011;6408;59.388;17.798;2022-07-19T06:24:18;5.80;;;5.13;;
12687;SDS011;6408;59.388;17.798;2022-07-19T06:26:45;6.15;;;5.30;;
12687;SDS011;6408;59.388;17.798;2022-07-19T06:29:12;6.78;;;5.15;;
12687;SDS011;6408;59.388;17.798;2022-07-19T06:31:40;7.57;;;5.05;;
12687;SDS011;6408;59.388;17.798;2022-07-19T06:34:07;7.00;;;4.90;;
12687;SDS011;6408;59.388;17.798;2022-07-19T06:36:34;6.22;;;4.95;;
12687;SDS011;6408;59.388;17.798;2022-07-19T06:39:00;6.60;;;5.35;;
12687;SDS011;6408;59.388;17.798;2022-07-19T06:41:27;5.50;;;4.68;;
12687;SDS011;6408;59.388;17.798;2022-07-19T06:43:54;6.15;;;5.07;;
12687;SDS011;6408;59.388;17.798;2022-07-19T06:46:21;5.88;;;5.38;;
12687;SDS011;6408;59.388;17.798;2022-07-19T06:48:49;5.40;;;4.90;;
12687;SDS011;6408;59.388;17.798;2022-07-19T06:51:16;6.07;;;5.20;;
12687;SDS011;6408;59.388;17.798;2022-07-19T06:53:43;5.38;;;4.88;;
12687;SDS011;6408;59.388;17.798;2022-07-19T06:56:09;7.75;;;5.35;;
12687;SDS011;6408;59.388;17.798;2022-07-19T06:58:36;7.07;;;5.13;;
12687;SDS011;6408;59.388;17.798;2022-07-19T07:01:03;5.68;;;4.82;;
12687;SDS011;6408;59.388;17.798;2022-07-19T07:03:29;6.68;;;4.93;;
12687;SDS011;6408;59.388;17.798;2022-07-19T07:05:58;6.55;;;4.95;;
12687;SDS011;6408;59.388;17.798;2022-07-19T07:08:24;6.40;;;5.15;;
12687;SDS011;6408;59.388;17.798;2022-07-19T07:10:51;8.18;;;5.30;;
12687;SDS011;6408;59.388;17.798;2022-07-19T07:13:18;6.43;;;4.97;;
12687;SDS011;6408;59.388;17.798;2022-07-19T07:15:45;5.43;;;4.93;;
12687;SDS011;6408;59.388;17.798;2022-07-19T07:18:12;5.95;;;4.93;;
12687;SDS011;6408;59.388;17.798;2022-07-19T07:20:39;7.07;;;4.80;;
12687;SDS011;6408;59.388;17.798;2022-07-19T07:23:07;7.07;;;4.72;;
12687;SDS011;6408;59.388;17.798;2022-07-19T07:25:34;5.35;;;4.78;;
12687;SDS011;6408;59.388;17.798;2022-07-19T07:28:01;6.65;;;4.97;;
12687;SDS011;6408;59.388;17.798;2022-07-19T07:30:28;6.13;;;5.10;;
12687;SDS011;6408;59.388;17.798;2022-07-19T07:32:54;5.85;;;4.97;;
12687;SDS011;6408;59.388;17.798;2022-07-19T07:35:21;6.15;;;4.70;;
12687;SDS011;6408;59.388;17.798;2022-07-19T07:37:48;5.57;;;4.63;;
12687;SDS011;6408;59.388;17.798;2022-07-19T07:40:16;5.25;;;4.55;;
12687;SDS011;6408;59.388;17.798;2022-07-19T07:42:43;6.07;;;4.55;;
12687;SDS011;6408;59.388;17.798;2022-07-19T07:45:09;4.75;;;4.20;;
12687;SDS011;6408;59.388;17.798;2022-07-19T07:47:36;4.93;;;3.65;;
12687;SDS011;6408;59.388;17.798;2022-07-19T07:50:04;7.38;;;4.10;;
12687;SDS011;6408;59.388;17.798;2022-07-19T07:52:32;4.72;;;4.20;;
12687;SDS011;6408;59.388;17.798;2022-07-19T07:54:59;5.40;;;4.40;;
12687;SDS011;6408;59.388;17.798;2022-07-19T07:57:27;5.00;;;3.85;;
12687;SDS011;6408;59.388;17.798;2022-07-19T07:59:54;8.73;;;3.95;;
12687;SDS011;6408;59.388;17.798;2022-07-19T08:02:21;4.90;;;4.03;;
12687;SDS011;6408;59.388;17.798;2022-07-19T08:04:47;4.38;;;3.97;;
12687;SDS011;6408;59.388;17.798;2022-07-19T08:07:14;4.75;;;4.30;;
12687;SDS011;6408;59.388;17.798;2022-07-19T08:09:41;6.45;;;4.18;;
12687;SDS011;6408;59.388;17.798;2022-07-19T08:12:08;3.75;;;3.33;;
12687;SDS011;6408;59.388;17.798;2022-07-19T08:14:36;4.43;;;3.20;;
12687;SDS011;6408;59.388;17.798;2022-07-19T08:17:03;3.83;;;2.72;;
12687;SDS011;6408;59.388;17.798;2022-07-19T08:19:29;3.58;;;2.80;;
12687;SDS011;6408;59.388;17.798;2022-07-19T08:21:56;4.55;;;2.70;;
12687;SDS011;6408;59.388;17.798;2022-07-19T08:24:23;3.58;;;2.72;;
12687;SDS011;6408;59.388;17.798;2022-07-19T08:26:49;2.92;;;2.35;;
12687;SDS011;6408;59.388;17.798;2022-07-19T08:29:16;2.30;;;2.10;;
12687;SDS011;6408;59.388;17.798;2022-07-19T08:31:44;3.45;;;2.10;;
12687;SDS011;6408;59.388;17.798;2022-07-19T08:34:11;2.33;;;2.13;;
12687;SDS011;6408;59.388;17.798;2022-07-19T08:36:38;3.70;;;2.17;;
12687;SDS011;6408;59.388;17.798;2022-07-19T08:39:04;4.55;;;2.15;;
12687;SDS011;6408;59.388;17.798;2022-07-19T08:41:31;2.65;;;2.20;;
12687;SDS011;6408;59.388;17.798;2022-07-19T08:43:59;2.00;;;1.90;;
12687;SDS011;6408;59.388;17.798;2022-07-19T08:46:29;2.95;;;2.30;;
12687;SDS011;6408;59.388;17.798;2022-07-19T08:48:57;2.03;;;1.92;;
12687;SDS011;6408;59.388;17.798;2022-07-19T08:51:25;3.00;;;1.98;;
12687;SDS011;6408;59.388;17.798;2022-07-19T08:53:52;2.42;;;2.00;;
12687;SDS011;6408;59.388;17.798;2022-07-19T08:56:19;2.30;;;2.10;;
12687;SDS011;6408;59.388;17.798;2022-07-19T08:59:04;2.33;;;1.92;;
12687;SDS011;6408;59.388;17.798;2022-07-19T09:01:31;3.63;;;2.17;;
12687;SDS011;6408;59.388;17.798;2022-07-19T09:04:10;4.05;;;2.10;;
12687;SDS011;6408;59.388;17.798;2022-07-19T09:06:39;3.47;;;1.92;;
12687;SDS011;6408;59.388;17.798;2022-07-19T09:09:08;3.63;;;1.95;;
12687;SDS011;6408;59.388;17.798;2022-07-19T09:11:36;2.10;;;1.90;;
12687;SDS011;6408;59.388;17.798;2022-07-19T09:14:06;2.97;;;2.10;;
12687;SDS011;6408;59.388;17.798;2022-07-19T09:16:52;2.55;;;1.90;;
12687;SDS011;6408;59.388;17.798;2022-07-19T09:19:22;2.03;;;1.83;;
12687;SDS011;6408;59.388;17.798;2022-07-19T09:21:51;1.77;;;1.67;;
12687;SDS011;6408;59.388;17.798;2022-07-19T09:24:23;3.55;;;1.73;;
12687;SDS011;6408;59.388;17.798;2022-07-19T09:26:54;1.95;;;1.70;;
12687;SDS011;6408;59.388;17.798;2022-07-19T09:29:22;3.47;;;1.90;;
12687;SDS011;6408;59.388;17.798;2022-07-19T09:32:02;2.75;;;1.42;;
12687;SDS011;6408;59.388;17.798;2022-07-19T09:34:32;3.08;;;1.70;;
12687;SDS011;6408;59.388;17.798;2022-07-19T09:37:11;3.33;;;2.15;;
12687;SDS011;6408;59.388;17.798;2022-07-19T09:39:43;2.88;;;2.22;;
12687;SDS011;6408;59.388;17.798;2022-07-19T09:42:11;2.45;;;1.98;;
12687;SDS011;6408;59.388;17.798;2022-07-19T09:44:40;3.40;;;2.47;;
12687;SDS011;6408;59.388;17.798;2022-07-19T09:47:07;2.22;;;2.03;;
12687;SDS011;6408;59.388;17.798;2022-07-19T09:49:36;2.15;;;1.95;;
12687;SDS011;6408;59.388;17.798;2022-07-19T09:52:03;1.92;;;1.60;;
12687;SDS011;6408;59.388;17.798;2022-07-19T09:54:30;3.35;;;2.00;;
12687;SDS011;6408;59.388;17.798;2022-07-19T09:56:57;2.15;;;1.70;;
12687;SDS011;6408;59.388;17.798;2022-07-19T09:59:25;1.83;;;1.73;;
12687;SDS011;6408;59.388;17.798;2022-07-19T10:01:53;2.95;;;1.90;;
12687;SDS011;6408;59.388;17.798;2022-07-19T10:04:22;1.90;;;1.48;;
12687;SDS011;6408;59.388;17.798;2022-07-19T10:06:51;2.38;;;1.60;;
12687;SDS011;6408;59.388;17.798;2022-07-19T10:09:20;2.08;;;1.70;;
12687;SDS011;6408;59.388;17.798;2022-07-19T10:11:48;2.40;;;1.77;;
12687;SDS011;6408;59.388;17.798;2022-07-19T10:14:17;2.65;;;1.60;;
12687;SDS011;6408;59.388;17.798;2022-07-19T10:19:33;2.10;;;1.88;;
12687;SDS011;6408;59.388;17.798;2022-07-19T10:22:04;1.80;;;1.70;;
12687;SDS011;6408;59.388;17.798;2022-07-19T10:24:45;1.98;;;1.30;;
12687;SDS011;6408;59.388;17.798;2022-07-19T10:27:17;1.45;;;1.35;;
12687;SDS011;6408;59.388;17.798;2022-07-19T10:29:45;2.55;;;1.40;;
12687;SDS011;6408;59.388;17.798;2022-07-19T10:32:12;1.70;;;1.55;;
12687;SDS011;6408;59.388;17.798;2022-07-19T10:34:40;3.22;;;1.65;;
12687;SDS011;6408;59.388;17.798;2022-07-19T10:37:09;3.05;;;1.60;;
12687;SDS011;6408;59.388;17.798;2022-07-19T10:39:36;1.83;;;1.70;;
12687;SDS011;6408;59.388;17.798;2022-07-19T10:42:04;1.63;;;1.48;;
12687;SDS011;6408;59.388;17.798;2022-07-19T10:50:41;1.55;;;1.45;;
12687;SDS011;6408;59.388;17.798;2022-07-19T10:56:32;1.77;;;1.30;;
12687;SDS011;6408;59.388;17.798;2022-07-19T10:59:05;1.92;;;1.50;;
12687;SDS011;6408;59.388;17.798;2022-07-19T11:01:33;1.60;;;1.30;;
12687;SDS011;6408;59.388;17.798;2022-07-19T11:06:49;2.25;;;1.35;;
12687;SDS011;6408;59.388;17.798;2022-07-19T11:09:17;1.70;;;1.27;;
12687;SDS011;6408;59.388;17.798;2022-07-19T11:11:44;1.65;;;1.55;;
12687;SDS011;6408;59.388;17.798;2022-07-19T11:14:11;2.42;;;1.55;;
12687;SDS011;6408;59.388;17.798;2022-07-19T11:16:38;1.65;;;1.33;;
12687;SDS011;6408;59.388;17.798;2022-07-19T11:19:07;1.60;;;1.50;;
12687;SDS011;6408;59.388;17.798;2022-07-19T11:21:35;1.45;;;1.35;;
12687;SDS011;6408;59.388;17.798;2022-07-19T11:24:03;1.77;;;1.40;;
12687;SDS011;6408;59.388;17.798;2022-07-19T11:26:35;1.35;;;1.25;;
12687;SDS011;6408;59.388;17.798;2022-07-19T11:29:03;1.52;;;1.42;;
12687;SDS011;6408;59.388;17.798;2022-07-19T11:31:30;1.40;;;1.30;;
12687;SDS011;6408;59.388;17.798;2022-07-19T11:33:58;2.83;;;1.30;;
12687;SDS011;6408;59.388;17.798;2022-07-19T11:36:25;2.25;;;1.50;;
12687;SDS011;6408;59.388;17.798;2022-07-19T11:38:53;1.52;;;1.35;;
12687;SDS011;6408;59.388;17.798;2022-07-19T11:41:22;1.50;;;1.40;;
12687;SDS011;6408;59.388;17.798;2022-07-19T11:43:55;1.50;;;1.38;;
12687;SDS011;6408;59.388;17.798;2022-07-19T11:46:23;1.90;;;1.30;;
12687;SDS011;6408;59.388;17.798;2022-07-19T11:48:55;1.48;;;1.20;;
12687;SDS011;6408;59.388;17.798;2022-07-19T11:51:23;1.63;;;1.52;;
12687;SDS011;6408;59.388;17.798;2022-07-19T11:53:50;1.55;;;1.20;;
12687;SDS011;6408;59.388;17.798;2022-07-19T11:56:20;1.33;;;1.20;;
12687;SDS011;6408;59.388;17.798;2022-07-19T11:58:48;1.58;;;1.30;;
12687;SDS011;6408;59.388;17.798;2022-07-19T12:01:23;1.67;;;1.40;;
12687;SDS011;6408;59.388;17.798;2022-07-19T12:03:54;1.98;;;1.33;;
12687;SDS011;6408;59.388;17.798;2022-07-19T12:06:35;1.48;;;1.30;;
12687;SDS011;6408;59.388;17.798;2022-07-19T12:09:03;2.80;;;1.27;;
12687;SDS011;6408;59.388;17.798;2022-07-19T12:11:36;1.42;;;1.20;;
12687;SDS011;6408;59.388;17.798;2022-07-19T12:14:15;1.30;;;1.20;;
12687;SDS011;6408;59.388;17.798;2022-07-19T12:16:45;1.85;;;1.30;;
12687;SDS011;6408;59.388;17.798;2022-07-19T12:19:12;1.73;;;1.30;;
12687;SDS011;6408;59.388;17.798;2022-07-19T12:21:43;1.20;;;1.10;;
12687;SDS011;6408;59.388;17.798;2022-07-19T12:24:11;1.27;;;1.17;;
12687;SDS011;6408;59.388;17.798;2022-07-19T12:26:43;1.60;;;1.50;;
12687;SDS011;6408;59.388;17.798;2022-07-19T12:29:20;1.45;;;1.35;;
12687;SDS011;6408;59.388;17.798;2022-07-19T12:31:51;1.50;;;1.40;;
12687;SDS011;6408;59.388;17.798;2022-07-19T12:34:19;3.10;;;1.27;;
12687;SDS011;6408;59.388;17.798;2022-07-19T12:36:46;3.13;;;1.73;;
12687;SDS011;6408;59.388;17.798;2022-07-19T12:39:16;1.20;;;1.10;;
12687;SDS011;6408;59.388;17.798;2022-07-19T12:41:57;2.20;;;2.00;;
12687;SDS011;6408;59.388;17.798;2022-07-19T12:44:25;2.63;;;2.33;;
12687;SDS011;6408;59.388;17.798;2022-07-19T12:46:54;3.25;;;2.22;;
12687;SDS011;6408;59.388;17.798;2022-07-19T12:49:21;2.00;;;1.60;;
12687;SDS011;6408;59.388;17.798;2022-07-19T12:51:48;1.48;;;1.25;;
12687;SDS011;6408;59.388;17.798;2022-07-19T12:54:15;2.40;;;1.58;;
12687;SDS011;6408;59.388;17.798;2022-07-19T12:56:42;2.72;;;1.75;;
12687;SDS011;6408;59.388;17.798;2022-07-19T12:59:09;2.38;;;2.17;;
12687;SDS011;6408;59.388;17.798;2022-07-19T13:01:54;1.60;;;1.50;;
12687;SDS011;6408;59.388;17.798;2022-07-19T13:04:21;1.67;;;1.55;;
12687;SDS011;6408;59.388;17.798;2022-07-19T13:06:48;3.05;;;1.42;;
12687;SDS011;6408;59.388;17.798;2022-07-19T13:09:15;1.20;;;1.10;;
12687;SDS011;6408;59.388;17.798;2022-07-19T13:11:41;1.63;;;1.27;;
12687;SDS011;6408;59.388;17.798;2022-07-19T13:14:08;1.55;;;1.30;;
12687;SDS011;6408;59.388;17.798;2022-07-19T13:16:36;2.35;;;1.13;;
12687;SDS011;6408;59.388;17.798;2022-07-19T13:19:04;1.40;;;1.27;;
12687;SDS011;6408;59.388;17.798;2022-07-19T13:21:31;3.85;;;1.33;;
12687;SDS011;6408;59.388;17.798;2022-07-19T13:23:58;1.20;;;1.10;;
12687;SDS011;6408;59.388;17.798;2022-07-19T13:26:25;1.30;;;1.10;;
12687;SDS011;6408;59.388;17.798;2022-07-19T13:28:52;1.65;;;1.30;;
12687;SDS011;6408;59.388;17.798;2022-07-19T13:31:19;1.52;;;1.20;;
12687;SDS011;6408;59.388;17.798;2022-07-19T13:33:45;1.60;;;1.30;;
12687;SDS011;6408;59.388;17.798;2022-07-19T13:36:13;1.30;;;1.20;;
12687;SDS011;6408;59.388;17.798;2022-07-19T13:38:40;2.13;;;1.30;;
12687;SDS011;6408;59.388;17.798;2022-07-19T13:41:08;1.30;;;1.17;;
12687;SDS011;6408;59.388;17.798;2022-07-19T13:43:35;1.83;;;1.20;;
12687;SDS011;6408;59.388;17.798;2022-07-19T13:46:02;1.42;;;1.33;;
12687;SDS011;6408;59.388;17.798;2022-07-19T13:48:29;1.38;;;1.17;;
12687;SDS011;6408;59.388;17.798;2022-07-19T13:50:55;2.25;;;1.50;;
12687;SDS011;6408;59.388;17.798;2022-07-19T13:53:23;1.88;;;1.42;;
12687;SDS011;6408;59.388;17.798;2022-07-19T13:55:50;1.55;;;1.42;;
12687;SDS011;6408;59.388;17.798;2022-07-19T13:58:17;1.40;;;1.30;;
12687;SDS011;6408;59.388;17.798;2022-07-19T14:00:44;2.08;;;1.40;;
12687;SDS011;6408;59.388;17.798;2022-07-19T14:03:11;2.13;;;1.15;;
12687;SDS011;6408;59.388;17.798;2022-07-19T14:05:39;1.38;;;1.27;;
12687;SDS011;6408;59.388;17.798;2022-07-19T14:08:06;2.25;;;1.30;;
12687;SDS011;6408;59.388;17.798;2022-07-19T14:10:34;1.48;;;1.20;;
12687;SDS011;6408;59.388;17.798;2022-07-19T14:13:01;4.50;;;1.20;;
12687;SDS011;6408;59.388;17.798;2022-07-19T14:15:28;1.75;;;1.33;;
12687;SDS011;6408;59.388;17.798;2022-07-19T14:17:56;1.25;;;1.02;;
12687;SDS011;6408;59.388;17.798;2022-07-19T14:20:23;1.90;;;1.30;;
12687;SDS011;6408;59.388;17.798;2022-07-19T14:22:50;2.33;;;1.30;;
12687;SDS011;6408;59.388;17.798;2022-07-19T14:25:19;1.48;;;1.10;;
12687;SDS011;6408;59.388;17.798;2022-07-19T14:27:49;1.45;;;1.35;;
12687;SDS011;6408;59.388;17.798;2022-07-19T14:30:16;3.00;;;1.17;;
12687;SDS011;6408;59.388;17.798;2022-07-19T14:32:43;1.92;;;1.20;;
12687;SDS011;6408;59.388;17.798;2022-07-19T14:35:10;1.50;;;1.40;;
12687;SDS011;6408;59.388;17.798;2022-07-19T14:37:37;1.33;;;1.20;;
12687;SDS011;6408;59.388;17.798;2022-07-19T14:40:04;1.77;;;1.30;;
12687;SDS011;6408;59.388;17.798;2022-07-19T14:42:31;1.23;;;1.13;;
12687;SDS011;6408;59.388;17.798;2022-07-19T14:45:00;1.42;;;1.23;;
12687;SDS011;6408;59.388;17.798;2022-07-19T14:47:27;2.15;;;1.23;;
12687;SDS011;6408;59.388;17.798;2022-07-19T14:49:54;1.40;;;1.30;;
12687;SDS011;6408;59.388;17.798;2022-07-19T14:52:21;2.03;;;1.40;;
12687;SDS011;6408;59.388;17.798;2022-07-19T14:54:48;1.20;;;1.10;;
12687;SDS011;6408;59.388;17.798;2022-07-19T14:57:14;2.70;;;1.20;;
12687;SDS011;6408;59.388;17.798;2022-07-19T14:59:41;1.40;;;1.30;;
12687;SDS011;6408;59.388;17.798;2022-07-19T15:02:09;1.48;;;1.15;;
12687;SDS011;6408;59.388;17.798;2022-07-19T15:04:36;1.00;;;1.00;;
12687;SDS011;6408;59.388;17.798;2022-07-19T15:07:03;1.40;;;1.30;;